createdAt,value
2019-05-20T00:00:34.297Z,8.60
2019-05-20T00:03:04.064Z,8.70
2019-05-20T00:05:33.667Z,6.73
2019-05-20T00:08:03.225Z,8.17
2019-05-20T00:10:33.002Z,8.13
2019-05-20T00:13:02.568Z,7.60
2019-05-20T00:15:32.114Z,7.30
2019-05-20T00:18:01.906Z,7.00
2019-05-20T00:20:31.451Z,7.23
2019-05-20T00:23:01.091Z,7.17
2019-05-20T00:25:30.634Z,7.70
2019-05-20T00:28:00.322Z,7.93
2019-05-20T00:30:29.875Z,7.77
2019-05-20T00:32:59.430Z,7.10
2019-05-20T00:35:29.677Z,6.93
2019-05-20T00:37:59.374Z,7.23
2019-05-20T00:40:28.922Z,8.30
2019-05-20T00:42:58.789Z,9.67
2019-05-20T00:45:28.333Z,7.80
2019-05-20T00:47:57.895Z,7.73
2019-05-20T00:50:28.167Z,7.67
2019-05-20T00:52:57.783Z,7.47
2019-05-20T00:55:31.827Z,7.60
2019-05-20T00:58:01.948Z,7.50
2019-05-20T01:00:31.964Z,8.47
2019-05-20T01:03:01.912Z,8.10
2019-05-20T01:05:31.734Z,9.00
2019-05-20T01:08:01.341Z,8.13
2019-05-20T01:10:31.096Z,8.17
2019-05-20T01:13:00.656Z,14.63
2019-05-20T01:15:30.289Z,11.57
2019-05-20T01:17:59.928Z,8.60
2019-05-20T01:20:29.488Z,11.50
2019-05-20T01:22:59.238Z,11.10
2019-05-20T01:25:28.794Z,13.40
2019-05-20T01:27:59.063Z,11.77
2019-05-20T01:30:28.969Z,11.47
2019-05-20T01:33:12.744Z,12.83
2019-05-20T01:35:29.960Z,12.30
2019-05-20T01:37:59.509Z,10.60
2019-05-20T01:40:29.455Z,12.00
2019-05-20T01:42:59.149Z,12.63
2019-05-20T01:45:28.861Z,14.67
2019-05-20T01:47:58.568Z,15.77
2019-05-20T01:50:28.148Z,12.50
2019-05-20T01:52:57.778Z,13.97
2019-05-20T01:55:27.342Z,11.50
2019-05-20T01:57:57.053Z,11.38
2019-05-20T02:00:26.607Z,13.70
2019-05-20T02:02:56.629Z,12.93
2019-05-20T02:05:26.498Z,11.93
2019-05-20T02:07:56.860Z,13.43
2019-05-20T02:10:26.765Z,15.40
2019-05-20T02:12:56.325Z,13.20
2019-05-20T02:15:33.769Z,13.57
2019-05-20T02:18:03.319Z,17.13
2019-05-20T02:20:32.885Z,15.93
2019-05-20T02:23:15.246Z,14.97
2019-05-20T02:25:47.707Z,15.87
2019-05-20T02:28:17.458Z,15.43
2019-05-20T02:30:47.591Z,16.30
2019-05-20T02:33:17.278Z,15.63
2019-05-20T02:35:46.851Z,16.50
2019-05-20T02:38:16.705Z,16.70
2019-05-20T02:40:46.401Z,16.50
2019-05-20T02:43:16.318Z,18.50
2019-05-20T02:45:46.674Z,19.40
2019-05-20T02:48:16.348Z,19.37
2019-05-20T02:50:45.977Z,18.67
2019-05-20T02:53:15.609Z,19.30
2019-05-20T02:55:45.239Z,18.00
2019-05-20T02:58:14.822Z,23.00
2019-05-20T03:00:44.547Z,18.40
2019-05-20T03:03:14.275Z,19.00
2019-05-20T03:05:43.997Z,20.13
2019-05-20T03:08:13.569Z,20.50
2019-05-20T03:10:43.724Z,20.07
2019-05-20T03:13:13.859Z,23.23
2019-05-20T03:15:43.419Z,21.83
2019-05-20T03:18:13.268Z,22.47
2019-05-20T03:20:42.826Z,24.83
2019-05-20T03:23:12.586Z,26.27
2019-05-20T03:25:42.164Z,25.90
2019-05-20T03:28:11.886Z,26.43
2019-05-20T03:30:41.589Z,28.60
2019-05-20T03:33:11.237Z,31.63
2019-05-20T03:35:40.943Z,32.43
2019-05-20T03:38:11.145Z,34.43
2019-05-20T03:40:40.833Z,42.27
2019-05-20T03:43:11.016Z,53.60
2019-05-20T03:45:40.588Z,48.67
2019-05-20T03:48:10.150Z,45.07
2019-05-20T03:50:39.881Z,43.60
2019-05-20T03:53:09.507Z,49.00
2019-05-20T03:55:39.083Z,49.43
2019-05-20T03:58:12.977Z,46.83
2019-05-20T04:00:46.891Z,49.13
2019-05-20T04:03:17.351Z,50.17
2019-05-20T04:05:47.546Z,46.57
2019-05-20T04:08:17.106Z,49.97
2019-05-20T04:10:46.667Z,46.97
2019-05-20T04:13:16.479Z,50.43
2019-05-20T04:15:46.172Z,52.07
2019-05-20T04:18:15.727Z,57.97
2019-05-20T04:20:45.420Z,61.37
2019-05-20T04:23:14.978Z,58.07
2019-05-20T04:25:44.805Z,64.67
2019-05-20T04:28:14.377Z,69.10
2019-05-20T04:30:43.933Z,85.50
2019-05-20T04:33:13.735Z,69.03
2019-05-20T04:35:43.294Z,61.27
2019-05-20T04:38:12.867Z,69.37
2019-05-20T04:40:42.852Z,69.27
2019-05-20T04:43:12.427Z,71.40
2019-05-20T04:45:42.119Z,75.37
2019-05-20T04:48:13.928Z,78.20
2019-05-20T04:50:43.537Z,72.53
2019-05-20T04:53:13.163Z,77.73
2019-05-20T04:55:42.715Z,69.13
2019-05-20T04:58:12.402Z,74.60
2019-05-20T05:00:54.867Z,76.03
2019-05-20T05:03:24.473Z,67.23
2019-05-20T05:05:54.824Z,69.27
2019-05-20T05:08:25.022Z,72.73
2019-05-20T05:10:54.991Z,87.30
2019-05-20T05:13:26.880Z,72.53
2019-05-20T05:15:56.453Z,67.63
2019-05-20T05:18:26.345Z,62.93
2019-05-20T05:20:56.822Z,63.33
2019-05-20T05:23:26.392Z,62.33
2019-05-20T05:25:55.975Z,62.27
2019-05-20T05:28:25.708Z,65.97
2019-05-20T05:30:55.501Z,64.33
2019-05-20T05:33:25.367Z,63.40
2019-05-20T05:35:54.996Z,61.40
2019-05-20T05:38:24.629Z,63.57
2019-05-20T05:40:54.303Z,61.87
2019-05-20T05:43:23.858Z,58.07
2019-05-20T05:45:53.511Z,65.83
2019-05-20T05:48:23.440Z,67.30
2019-05-20T05:50:53.928Z,66.53
2019-05-20T05:53:24.054Z,65.47
2019-05-20T05:55:53.773Z,63.13
2019-05-20T05:58:23.341Z,65.03
2019-05-20T06:00:52.958Z,64.03
2019-05-20T06:03:22.551Z,80.47
2019-05-20T06:06:01.464Z,81.87
2019-05-20T06:08:23.758Z,82.87
2019-05-20T06:10:53.317Z,72.67
2019-05-20T06:13:23.505Z,69.40
2019-05-20T06:21:10.111Z,65.60
2019-05-20T06:23:39.832Z,65.40
2019-05-20T06:26:09.387Z,63.37
2019-05-20T06:28:39.232Z,59.40
2019-05-20T06:31:08.793Z,57.47
2019-05-20T06:33:38.670Z,60.00
2019-05-20T06:36:08.554Z,60.43
2019-05-20T06:38:40.975Z,59.93
2019-05-20T06:41:10.665Z,57.40
2019-05-20T06:43:40.226Z,53.70
2019-05-20T06:46:09.798Z,52.60
2019-05-20T06:48:39.555Z,57.75
2019-05-20T06:51:09.121Z,52.37
2019-05-20T06:53:39.303Z,59.17
2019-05-20T06:56:09.281Z,53.73
2019-05-20T06:58:38.845Z,54.30
2019-05-20T07:01:08.428Z,59.10
2019-05-20T07:03:38.214Z,54.33
2019-05-20T07:06:07.911Z,51.97
2019-05-20T07:08:37.554Z,48.30
2019-05-20T07:11:07.171Z,54.20
2019-05-20T07:13:36.896Z,56.07
2019-05-20T07:16:06.543Z,57.90
2019-05-20T07:18:36.104Z,64.47
2019-05-20T07:21:06.378Z,68.90
2019-05-20T07:23:35.939Z,59.93
2019-05-20T07:26:05.592Z,62.37
2019-05-20T07:28:35.292Z,61.40
2019-05-20T07:31:04.854Z,59.53
2019-05-20T07:33:34.475Z,58.87
2019-05-20T07:36:04.191Z,57.47
2019-05-20T07:38:33.958Z,59.80
2019-05-20T07:41:03.873Z,60.93
2019-05-20T07:43:33.398Z,59.47
2019-05-20T07:46:03.970Z,57.67
2019-05-20T07:48:34.078Z,58.87
2019-05-20T07:51:04.912Z,56.67
2019-05-20T07:53:36.118Z,62.60
2019-05-20T07:56:10.403Z,58.53
2019-05-20T07:58:44.764Z,57.67
2019-05-20T08:01:14.668Z,60.20
2019-05-20T08:03:44.727Z,57.87
2019-05-20T08:06:14.685Z,53.50
2019-05-20T08:08:44.365Z,53.53
2019-05-20T08:11:13.945Z,55.93
2019-05-20T08:13:43.645Z,54.83
2019-05-20T08:16:13.477Z,58.67
2019-05-20T08:18:43.048Z,54.83
2019-05-20T08:21:12.778Z,52.27
2019-05-20T08:23:43.246Z,47.53
2019-05-20T08:26:12.913Z,49.47
2019-05-20T08:28:42.487Z,49.88
2019-05-20T08:31:12.359Z,48.03
2019-05-20T08:33:42.787Z,44.57
2019-05-20T08:36:12.407Z,46.47
2019-05-20T08:38:42.700Z,44.83
2019-05-20T08:41:13.307Z,40.00
2019-05-20T08:43:42.876Z,40.03
2019-05-20T08:46:13.044Z,42.80
2019-05-20T08:48:42.627Z,40.53
2019-05-20T08:51:13.491Z,40.57
2019-05-20T08:53:43.146Z,40.70
2019-05-20T08:56:12.914Z,39.50
2019-05-20T08:58:42.475Z,36.83
2019-05-20T09:01:12.542Z,38.00
2019-05-20T09:03:42.652Z,36.67
2019-05-20T09:06:12.968Z,39.60
2019-05-20T09:08:42.966Z,40.20
2019-05-20T09:11:12.916Z,35.93
2019-05-20T09:13:42.552Z,38.03
2019-05-20T09:16:12.418Z,39.23
2019-05-20T09:18:41.993Z,45.17
2019-05-20T09:21:11.887Z,40.07
2019-05-20T09:23:41.582Z,43.13
2019-05-20T09:26:11.286Z,44.20
2019-05-20T09:28:40.940Z,44.03
2019-05-20T09:31:10.535Z,45.60
2019-05-20T09:33:40.518Z,44.77
2019-05-20T09:36:10.062Z,43.27
2019-05-20T09:38:39.993Z,39.90
2019-05-20T09:41:09.550Z,39.67
2019-05-20T09:43:39.228Z,42.97
2019-05-20T09:46:09.139Z,42.07
2019-05-20T09:48:38.722Z,44.90
2019-05-20T09:51:08.364Z,44.77
2019-05-20T09:53:38.054Z,43.13
2019-05-20T09:56:07.617Z,46.50
2019-05-20T09:58:37.186Z,43.93
2019-05-20T10:01:07.163Z,43.57
2019-05-20T10:03:36.727Z,43.00
2019-05-20T10:06:07.226Z,43.70
2019-05-20T10:08:44.201Z,43.17
2019-05-20T10:11:08.391Z,40.23
2019-05-20T10:13:38.024Z,41.53
2019-05-20T10:16:07.654Z,40.63
2019-05-20T10:18:39.370Z,39.20
2019-05-20T10:21:09.304Z,40.77
2019-05-20T10:23:39.499Z,38.90
2019-05-20T10:26:09.256Z,38.80
2019-05-20T10:28:41.999Z,41.43
2019-05-20T10:31:10.627Z,40.37
2019-05-20T10:33:40.190Z,41.13
2019-05-20T10:36:09.749Z,41.83
2019-05-20T10:38:56.933Z,41.10
2019-05-20T10:41:11.479Z,44.37
2019-05-20T10:43:41.205Z,41.57
2019-05-20T10:46:11.541Z,41.23
2019-05-20T10:48:41.100Z,42.00
2019-05-20T10:51:10.946Z,42.40
2019-05-20T10:53:40.508Z,39.53
2019-05-20T10:56:10.490Z,37.03
2019-05-20T10:58:40.291Z,38.63
2019-05-20T11:01:09.990Z,40.80
2019-05-20T11:03:39.706Z,40.67
2019-05-20T11:06:09.276Z,33.63
2019-05-20T11:08:39.125Z,32.27
2019-05-20T11:11:13.949Z,33.73
2019-05-20T11:13:40.008Z,33.90
2019-05-20T11:16:09.899Z,32.47
2019-05-20T11:18:39.585Z,36.93
2019-05-20T11:21:09.299Z,35.20
2019-05-20T11:23:38.844Z,33.57
2019-05-20T11:26:08.711Z,34.10
2019-05-20T11:28:38.267Z,34.73
2019-05-20T11:31:08.186Z,32.40
2019-05-20T11:33:38.250Z,33.47
2019-05-20T11:36:07.818Z,32.90
2019-05-20T11:38:37.503Z,31.20
2019-05-20T11:41:07.062Z,30.63
2019-05-20T11:43:36.637Z,30.13
2019-05-20T11:46:06.667Z,33.37
2019-05-20T11:48:36.259Z,32.10
2019-05-20T11:51:05.850Z,27.63
2019-05-20T11:53:35.512Z,31.27
2019-05-20T11:56:05.536Z,30.77
2019-05-20T11:58:35.535Z,32.17
2019-05-20T12:01:05.163Z,31.80
2019-05-20T12:03:35.978Z,30.60
2019-05-20T12:06:05.936Z,29.43
2019-05-20T12:08:35.936Z,29.77
2019-05-20T12:11:05.632Z,28.10
2019-05-20T12:13:35.416Z,30.43
2019-05-20T12:16:05.048Z,31.50
2019-05-20T12:18:34.609Z,27.27
2019-05-20T12:21:04.369Z,32.23
2019-05-20T12:23:33.921Z,28.00
2019-05-20T12:26:04.034Z,31.13
2019-05-20T12:28:33.880Z,30.27
2019-05-20T12:31:03.530Z,34.03
2019-05-20T12:33:33.301Z,28.80
2019-05-20T12:36:02.879Z,27.90
2019-05-20T12:38:32.726Z,30.20
2019-05-20T12:41:02.846Z,30.53
2019-05-20T12:43:32.553Z,31.00
2019-05-20T12:46:03.133Z,32.80
2019-05-20T12:48:32.984Z,31.23
2019-05-20T12:51:02.548Z,31.17
2019-05-20T12:53:32.090Z,30.87
2019-05-20T12:56:01.842Z,31.73
2019-05-20T12:58:31.433Z,30.67
2019-05-20T13:01:02.362Z,31.57
2019-05-20T13:03:32.660Z,33.20
2019-05-20T13:06:02.217Z,33.10
2019-05-20T13:08:31.775Z,32.00
2019-05-20T13:11:01.574Z,35.00
2019-05-20T13:13:31.148Z,35.77
2019-05-20T13:16:00.732Z,31.93
2019-05-20T13:18:30.621Z,31.87
2019-05-20T13:21:00.183Z,33.70
2019-05-20T13:23:29.917Z,37.83
2019-05-20T13:25:59.475Z,36.37
2019-05-20T13:28:29.536Z,37.47
2019-05-20T13:30:59.084Z,34.23
2019-05-20T13:33:28.647Z,35.80
2019-05-20T13:35:58.449Z,35.30
2019-05-20T13:38:28.030Z,35.47
2019-05-20T13:40:57.594Z,38.27
2019-05-20T13:43:27.753Z,39.20
2019-05-20T13:45:57.354Z,36.63
2019-05-20T13:48:27.825Z,39.80
2019-05-20T13:50:57.659Z,40.13
2019-05-20T13:53:27.284Z,37.80
2019-05-20T13:55:57.150Z,41.50
2019-05-20T13:58:26.722Z,37.53
2019-05-20T14:00:56.688Z,44.30
2019-05-20T14:03:26.475Z,42.83
2019-05-20T14:05:56.175Z,42.57
2019-05-20T14:08:25.758Z,43.77
2019-05-20T14:11:04.443Z,40.37
2019-05-20T14:13:26.669Z,44.40
2019-05-20T14:15:56.236Z,45.20
2019-05-20T14:18:25.875Z,45.20
2019-05-20T14:20:55.434Z,45.17
2019-05-20T14:23:24.995Z,44.33
2019-05-20T14:25:54.930Z,44.63
2019-05-20T14:28:24.489Z,46.30
2019-05-20T14:30:54.117Z,45.47
2019-05-20T14:33:23.672Z,42.90
2019-05-20T14:35:53.321Z,39.40
2019-05-20T14:38:22.889Z,41.00
2019-05-20T14:40:52.668Z,41.40
2019-05-20T14:43:22.522Z,39.10
2019-05-20T14:45:52.047Z,39.87
2019-05-20T14:48:22.056Z,45.73
2019-05-20T14:50:51.607Z,41.03
2019-05-20T14:53:21.414Z,42.27
2019-05-20T14:55:51.368Z,39.97
2019-05-20T14:58:20.932Z,41.40
2019-05-20T15:00:51.000Z,40.40
2019-05-20T15:03:20.623Z,38.10
2019-05-20T15:05:50.489Z,39.07
2019-05-20T15:08:20.155Z,40.30
2019-05-20T15:10:49.707Z,41.73
2019-05-20T15:13:19.557Z,40.17
2019-05-20T15:15:49.133Z,40.33
2019-05-20T15:18:18.756Z,36.63
2019-05-20T15:20:48.460Z,38.67
2019-05-20T15:23:18.149Z,38.27
2019-05-20T15:25:47.889Z,37.77
2019-05-20T15:28:18.825Z,35.30
2019-05-20T15:30:48.524Z,36.03
2019-05-20T15:33:18.083Z,35.37
2019-05-20T15:35:48.091Z,36.23
2019-05-20T15:38:18.061Z,37.17
2019-05-20T15:40:47.635Z,33.63
2019-05-20T15:43:17.466Z,35.10
2019-05-20T15:45:47.034Z,35.60
2019-05-20T15:48:16.701Z,39.83
2019-05-20T15:50:46.245Z,35.60
2019-05-20T15:53:16.297Z,35.43
2019-05-20T15:55:46.016Z,33.97
2019-05-20T15:58:15.589Z,33.27
2019-05-20T16:00:45.300Z,33.83
2019-05-20T16:03:15.191Z,32.93
2019-05-20T16:05:45.381Z,29.20
2019-05-20T16:08:15.375Z,33.50
2019-05-20T16:10:45.076Z,30.77
2019-05-20T16:13:14.638Z,32.40
2019-05-20T16:15:44.347Z,29.20
2019-05-20T16:18:14.029Z,32.20
2019-05-20T16:20:43.643Z,31.93
2019-05-20T16:23:13.317Z,31.07
2019-05-20T16:25:42.900Z,30.10
2019-05-20T16:28:12.578Z,32.83
2019-05-20T16:30:42.553Z,35.87
2019-05-20T16:33:12.119Z,31.00
2019-05-20T16:35:41.785Z,31.13
2019-05-20T16:38:11.337Z,29.67
2019-05-20T16:40:40.892Z,29.70
2019-05-20T16:43:10.622Z,28.70
2019-05-20T16:45:40.178Z,31.03
2019-05-20T16:48:10.505Z,31.50
2019-05-20T16:50:40.254Z,30.50
2019-05-20T16:53:09.812Z,33.50
2019-05-20T16:55:39.554Z,30.33
2019-05-20T16:58:09.153Z,31.17
2019-05-20T17:00:38.690Z,30.43
2019-05-20T17:03:08.583Z,36.00
2019-05-20T17:05:38.915Z,32.70
2019-05-20T17:08:08.763Z,33.33
2019-05-20T17:10:38.547Z,30.93
2019-05-20T17:13:08.430Z,30.80
2019-05-20T17:15:38.059Z,31.77
2019-05-20T17:18:07.813Z,36.37
2019-05-20T17:20:37.388Z,32.43
2019-05-20T17:23:07.086Z,32.60
2019-05-20T17:25:38.179Z,33.97
2019-05-20T17:28:07.750Z,32.93
2019-05-20T17:30:45.338Z,36.60
2019-05-20T17:33:09.503Z,35.53
2019-05-20T17:35:40.188Z,36.27
2019-05-20T17:38:10.587Z,33.47
2019-05-20T17:40:40.572Z,35.53
2019-05-20T17:43:10.271Z,36.70
2019-05-20T17:45:40.147Z,32.55
2019-05-20T17:48:09.984Z,33.73
2019-05-20T17:50:39.540Z,29.67
2019-05-20T17:53:09.678Z,32.70
2019-05-20T17:55:39.262Z,36.10
2019-05-20T17:58:08.815Z,35.33
2019-05-20T18:00:38.685Z,33.03
2019-05-20T18:03:08.474Z,36.07
2019-05-20T18:05:38.034Z,38.90
2019-05-20T18:08:08.134Z,35.00
2019-05-20T18:10:38.241Z,37.00
2019-05-20T18:13:07.798Z,35.20
2019-05-20T18:15:37.679Z,35.47
2019-05-20T18:18:07.293Z,43.57
2019-05-20T18:20:37.033Z,34.63
2019-05-20T18:23:06.591Z,36.10
2019-05-20T18:25:36.148Z,35.37
2019-05-20T18:28:06.985Z,35.67
2019-05-20T18:30:36.608Z,37.67
2019-05-20T18:33:06.268Z,43.93
2019-05-20T18:35:36.145Z,41.43
2019-05-20T18:38:05.786Z,37.97
2019-05-20T18:40:35.341Z,38.97
2019-05-20T18:43:05.075Z,39.27
2019-05-20T18:45:35.107Z,38.57
2019-05-20T18:48:04.840Z,38.57
2019-05-20T18:50:34.598Z,37.70
2019-05-20T18:53:04.320Z,36.67
2019-05-20T18:55:34.949Z,39.43
2019-05-20T18:58:04.884Z,38.43
2019-05-20T19:00:34.794Z,40.87
2019-05-20T19:03:04.539Z,36.93
2019-05-20T19:05:34.495Z,38.00
2019-05-20T19:08:04.130Z,37.67
2019-05-20T19:10:34.136Z,37.13
2019-05-20T19:13:03.716Z,37.50
2019-05-20T19:15:33.714Z,36.07
2019-05-20T19:18:03.655Z,34.50
2019-05-20T19:20:33.286Z,37.20
2019-05-20T19:23:02.845Z,35.30
2019-05-20T19:25:37.819Z,35.33
2019-05-20T19:28:03.779Z,33.13
2019-05-20T19:30:33.436Z,35.03
2019-05-20T19:33:03.361Z,35.20
2019-05-20T19:35:33.109Z,34.47
2019-05-20T19:38:02.663Z,33.67
2019-05-20T19:40:33.414Z,33.03
2019-05-20T19:43:02.973Z,33.27
2019-05-20T19:45:32.528Z,31.33
2019-05-20T19:48:02.295Z,30.87
2019-05-20T19:50:31.825Z,30.73
2019-05-20T19:53:02.973Z,32.27
2019-05-20T19:55:33.183Z,29.17
2019-05-20T19:58:02.842Z,28.87
2019-05-20T20:00:32.402Z,27.43
2019-05-20T20:03:02.390Z,29.37
2019-05-20T20:05:32.447Z,28.33
2019-05-20T20:08:02.166Z,26.13
2019-05-20T20:10:33.485Z,25.83
2019-05-20T20:13:03.050Z,27.53
2019-05-20T20:15:32.900Z,24.77
2019-05-20T20:18:02.666Z,29.70
2019-05-20T20:20:32.235Z,28.97
2019-05-20T20:23:02.162Z,32.27
2019-05-20T20:25:31.919Z,28.00
2019-05-20T20:28:01.482Z,27.50
2019-05-20T20:30:31.105Z,27.17
2019-05-20T20:33:00.767Z,26.43
2019-05-20T20:35:38.003Z,30.23
2019-05-20T20:38:01.676Z,29.60
2019-05-20T20:40:31.619Z,29.93
2019-05-20T20:43:01.178Z,28.07
2019-05-20T20:45:31.437Z,25.97
2019-05-20T20:48:01.001Z,30.90
2019-05-20T20:50:31.477Z,26.07
2019-05-20T20:53:01.044Z,28.07
2019-05-20T20:55:30.655Z,24.70
2019-05-20T20:58:00.290Z,31.07
2019-05-20T21:00:29.925Z,27.20
2019-05-20T21:02:59.443Z,28.83
2019-05-20T21:05:29.314Z,28.43
2019-05-20T21:07:58.989Z,27.67
2019-05-20T21:10:28.545Z,30.87
2019-05-20T21:12:58.199Z,27.40
2019-05-20T21:15:27.927Z,29.37
2019-05-20T21:17:57.566Z,30.00
2019-05-20T21:20:27.169Z,31.50
2019-05-20T21:22:57.259Z,32.77
2019-05-20T21:25:26.832Z,36.50
2019-05-20T21:27:56.392Z,31.93
2019-05-20T21:30:26.790Z,32.57
2019-05-20T21:33:08.333Z,35.90
2019-05-20T21:35:27.634Z,32.87
2019-05-20T21:37:58.506Z,32.23
2019-05-20T21:40:28.060Z,35.97
2019-05-20T21:42:57.667Z,33.30
2019-05-20T21:45:27.218Z,34.27
2019-05-20T21:47:57.679Z,37.63
2019-05-20T21:50:27.197Z,40.17
2019-05-20T21:52:57.058Z,36.80
2019-05-20T21:55:26.628Z,41.73
2019-05-20T21:57:56.177Z,38.37
2019-05-20T22:00:46.226Z,41.77
2019-05-20T22:03:24.019Z,46.57
2019-05-20T22:05:47.477Z,65.17
2019-05-20T22:08:17.406Z,47.27
2019-05-20T22:10:46.967Z,48.17
2019-05-20T22:13:16.856Z,49.83
2019-05-20T22:15:46.469Z,53.40
2019-05-20T22:18:15.967Z,55.93
2019-05-20T22:20:45.665Z,56.80
2019-05-20T22:23:15.246Z,50.53
2019-05-20T22:25:47.098Z,51.63
2019-05-20T22:28:16.683Z,53.70
2019-05-20T22:30:46.416Z,51.00
2019-05-20T22:33:16.000Z,50.37
2019-05-20T22:35:46.133Z,52.37
2019-05-20T22:38:15.738Z,50.23
2019-05-20T22:40:46.532Z,53.90
2019-05-20T22:43:16.056Z,48.67
2019-05-20T22:45:45.627Z,54.53
2019-05-20T22:48:15.411Z,50.27
2019-05-20T22:50:48.506Z,52.00
2019-05-20T22:53:16.263Z,47.90
2019-05-20T22:55:45.968Z,45.90
2019-05-20T22:58:16.078Z,47.63
2019-05-20T23:00:45.650Z,44.77
2019-05-20T23:03:18.951Z,44.57
2019-05-20T23:05:48.513Z,44.25
2019-05-20T23:08:18.152Z,43.80
2019-05-20T23:10:48.310Z,41.00
2019-05-20T23:13:17.861Z,40.93
2019-05-20T23:15:47.419Z,36.50
2019-05-20T23:18:17.230Z,39.40
2019-05-20T23:20:46.785Z,34.90
2019-05-20T23:23:16.633Z,38.83
2019-05-20T23:25:46.914Z,38.10
2019-05-20T23:28:16.469Z,35.73
2019-05-20T23:30:46.162Z,35.37
2019-05-20T23:33:15.878Z,39.23
2019-05-20T23:35:45.432Z,37.33
2019-05-20T23:38:15.309Z,41.30
2019-05-20T23:40:45.002Z,38.17
2019-05-20T23:43:14.544Z,34.47
2019-05-20T23:45:45.191Z,33.07
2019-05-20T23:48:14.752Z,30.30
2019-05-20T23:50:44.306Z,29.57
2019-05-20T23:53:14.163Z,28.37
2019-05-20T23:55:45.031Z,29.67
2019-05-20T23:58:14.586Z,26.53
